Wetterdaten: Woche 25.06.12 - 01.07.12 (KW26)
Datum Zeit Temp. Innen Temp. Aussen UV X Diff Temp. Feuchte Inne Feuchte Auss Sonnenschein Luftdruck Regen ab 0,1 Wind Sonnenschein T Regendauer Windben
25.06.2012 00:00 19,9 C 12,4 C 0,0 UV-I 0,0 C 58 % 88 % 0 % 1013,7 hPa 0,0 l/m 0,6 km/h (0 Bft) 0,00 h 0,00 h 3,3 km/h (1 Bft)
25.06.2012 01:00 19,7 C 12,4 C 0,0 UV-I 0,0 C 60 % 92 % 0 % 1013,8 hPa 0,0 l/m 2,1 km/h (1 Bft) 0,00 h 0,00 h 6,9 km/h (2 Bft)
25.06.2012 02:00 19,5 C 12,6 C 0,0 UV-I 0,0 C 61 % 94 % 0 % 1013,6 hPa 0,0 l/m 4,4 km/h (1 Bft) 0,00 h 0,00 h 10,6 km/h (2 Bft)
25.06.2012 03:00 19,2 C 13,0 C 0,0 UV-I 0,0 C 62 % 94 % 0 % 1013,3 hPa 0,0 l/m 4,7 km/h (1 Bft) 0,00 h 0,00 h 10,1 km/h (2 Bft)
25.06.2012 04:00 19,3 C 13,1 C 0,0 UV-I 0,0 C 62 % 94 % 0 % 1013,3 hPa 0,0 l/m 4,4 km/h (1 Bft) 0,00 h 0,00 h 8,2 km/h (2 Bft)
25.06.2012 05:00 19,4 C 13,0 C 0,0 UV-I 0,0 C 62 % 93 % 0 % 1013,6 hPa 0,0 l/m 3,8 km/h (1 Bft) 0,00 h 0,00 h 7,2 km/h (2 Bft)
25.06.2012 06:00 19,3 C 13,0 C 0,0 UV-I 0,0 C 62 % 94 % 1 % 1013,6 hPa 0,0 l/m 3,9 km/h (1 Bft) 0,00 h 0,00 h 7,7 km/h (2 Bft)
25.06.2012 07:00 19,4 C 13,6 C 0,0 UV-I 0,8 C 62 % 93 % 24 % 1014,1 hPa 0,0 l/m 3,9 km/h (1 Bft) 0,00 h 0,00 h 8,1 km/h (2 Bft)
25.06.2012 08:00 19,5 C 14,4 C 0,1 UV-I 1,2 C 63 % 92 % 33 % 1014,6 hPa 0,0 l/m 4,7 km/h (1 Bft) 0,00 h 0,23 h 8,4 km/h (2 Bft)
25.06.2012 09:00 19,7 C 14,6 C 0,2 UV-I 1,0 C 63 % 91 % 28 % 1014,7 hPa 0,0 l/m 4,9 km/h (1 Bft) 0,00 h 0,00 h 9,0 km/h (2 Bft)
25.06.2012 10:00 19,7 C 15,7 C 1,7 UV-I 3,4 C 62 % 85 % 81 % 1014,9 hPa 0,0 l/m 7,1 km/h (2 Bft) 0,57 h 0,00 h 13,4 km/h (3 Bft)
25.06.2012 11:00 20,0 C 16,8 C 1,4 UV-I 3,3 C 60 % 78 % 70 % 1014,8 hPa 0,0 l/m 7,9 km/h (2 Bft) 0,53 h 0,00 h 14,4 km/h (3 Bft)
25.06.2012 12:00 20,1 C 16,8 C 0,8 UV-I 1,7 C 59 % 77 % 44 % 1015,0 hPa 0,0 l/m 7,1 km/h (2 Bft) 0,23 h 0,00 h 11,6 km/h (2 Bft)
25.06.2012 13:00 20,4 C 17,9 C 1,8 UV-I 3,2 C 58 % 74 % 84 % 1015,0 hPa 0,0 l/m 7,4 km/h (2 Bft) 0,67 h 0,00 h 13,4 km/h (3 Bft)
25.06.2012 14:00 20,9 C 18,4 C 1,4 UV-I 2,5 C 57 % 70 % 67 % 1015,2 hPa 0,0 l/m 7,1 km/h (2 Bft) 0,33 h 0,00 h 14,7 km/h (3 Bft)
25.06.2012 15:00 21,4 C 19,0 C 1,5 UV-I 2,6 C 55 % 65 % 72 % 1015,7 hPa 0,0 l/m 10,1 km/h (2 Bft) 0,40 h 0,00 h 16,1 km/h (3 Bft)
25.06.2012 16:00 22,4 C 19,8 C 2,1 UV-I 3,5 C 52 % 63 % 90 % 1015,7 hPa 0,0 l/m 8,6 km/h (2 Bft) 0,77 h 0,00 h 14,7 km/h (3 Bft)
25.06.2012 17:00 23,1 C 19,3 C 1,7 UV-I 2,8 C 50 % 63 % 78 % 1016,1 hPa 0,0 l/m 8,0 km/h (2 Bft) 0,43 h 0,00 h 15,6 km/h (3 Bft)
25.06.2012 18:00 23,1 C 18,6 C 1,0 UV-I 2,0 C 50 % 65 % 57 % 1016,8 hPa 0,0 l/m 8,9 km/h (2 Bft) 0,07 h 0,00 h 16,2 km/h (3 Bft)
25.06.2012 19:00 22,6 C 17,6 C 0,6 UV-I 0,3 C 50 % 65 % 8 % 1017,3 hPa 0,0 l/m 7,3 km/h (2 Bft) 0,00 h 0,03 h 16,0 km/h (3 Bft)
25.06.2012 20:00 22,1 C 16,8 C 0,0 UV-I 0,0 C 51 % 69 % 0 % 1018,0 hPa 0,0 l/m 3,9 km/h (1 Bft) 0,00 h 0,00 h 7,9 km/h (2 Bft)
25.06.2012 21:00 21,8 C 16,0 C 0,0 UV-I 0,0 C 52 % 72 % 0 % 1018,4 hPa 0,0 l/m 1,3 km/h (1 Bft) 0,00 h 0,00 h 3,9 km/h (1 Bft)
25.06.2012 22:00 21,5 C 15,2 C 0,0 UV-I 0,0 C 53 % 75 % 0 % 1019,1 hPa 0,0 l/m 1,0 km/h (0 Bft) 0,00 h 0,10 h 2,5 km/h (1 Bft)
25.06.2012 23:00 21,2 C 14,5 C 0,0 UV-I 0,0 C 54 % 78 % 0 % 1019,4 hPa 0,0 l/m 0,4 km/h (0 Bft) 0,00 h 0,03 h 0,3 km/h (0 Bft)
26.06.2012 00:00 20,9 C 13,1 C 0,0 UV-I 0,0 C 55 % 82 % 0 % 1019,6 hPa 0,0 l/m 0,1 km/h (0 Bft) 0,00 h 0,00 h 0,6 km/h (0 Bft)
26.06.2012 01:00 20,7 C 11,7 C 0,0 UV-I 0,0 C 56 % 85 % 0 % 1020,1 hPa 0,0 l/m 0,0 km/h (0 Bft) 0,00 h 0,10 h 0,0 km/h (0 Bft)
26.06.2012 02:00 20,4 C 10,7 C 0,0 UV-I 0,0 C 56 % 88 % 0 % 1020,2 hPa 0,0 l/m 0,0 km/h (0 Bft) 0,00 h 0,33 h 0,0 km/h (0 Bft)
26.06.2012 03:00 20,2 C 10,0 C 0,0 UV-I 0,0 C 57 % 90 % 0 % 1020,0 hPa 0,0 l/m 0,0 km/h (0 Bft) 0,00 h 0,00 h 0,0 km/h (0 Bft)
26.06.2012 04:00 20,0 C 9,9 C 0,0 UV-I 0,0 C 57 % 92 % 0 % 1020,0 hPa 0,0 l/m 0,0 km/h (0 Bft) 0,00 h 0,17 h 0,0 km/h (0 Bft)
26.06.2012 05:00 20,0 C 10,6 C 0,0 UV-I 0,0 C 57 % 93 % 0 % 1020,3 hPa 0,0 l/m 0,0 km/h (0 Bft) 0,00 h 0,00 h 0,3 km/h (0 Bft)
26.06.2012 06:00 20,0 C 11,2 C 0,0 UV-I 0,0 C 58 % 94 % 0 % 1020,5 hPa 0,0 l/m 0,2 km/h (0 Bft) 0,00 h 0,03 h 0,9 km/h (0 Bft)
26.06.2012 07:00 20,0 C 11,5 C 0,2 UV-I 0,0 C 58 % 94 % 0 % 1020,8 hPa 0,0 l/m 0,1 km/h (0 Bft) 0,00 h 0,00 h 0,5 km/h (0 Bft)
26.06.2012 08:00 20,1 C 13,1 C 0,9 UV-I 6,5 C 58 % 93 % 83 % 1021,1 hPa 0,0 l/m 1,3 km/h (1 Bft) 0,80 h 0,03 h 4,5 km/h (1 Bft)
26.06.2012 09:00 20,3 C 16,2 C 3,2 UV-I 8,8 C 58 % 81 % 100 % 1021,3 hPa 0,0 l/m 3,8 km/h (1 Bft) 1,00 h 0,00 h 9,2 km/h (2 Bft)
26.06.2012 10:00 20,6 C 17,9 C 4,4 UV-I 8,4 C 57 % 69 % 100 % 1021,5 hPa 0,0 l/m 4,9 km/h (1 Bft) 1,00 h 0,00 h 10,7 km/h (2 Bft)
26.06.2012 11:00 21,0 C 18,9 C 3,6 UV-I 7,8 C 56 % 64 % 100 % 1021,6 hPa 0,0 l/m 5,6 km/h (1 Bft) 1,00 h 0,00 h 9,4 km/h (2 Bft)
26.06.2012 12:00 21,5 C 19,8 C 2,6 UV-I 6,8 C 55 % 61 % 100 % 1021,6 hPa 0,0 l/m 4,1 km/h (1 Bft) 1,00 h 0,00 h 8,6 km/h (2 Bft)
26.06.2012 13:00 22,1 C 20,6 C 2,5 UV-I 6,4 C 54 % 59 % 100 % 1021,6 hPa 0,0 l/m 3,5 km/h (1 Bft) 1,00 h 0,00 h 8,6 km/h (2 Bft)
26.06.2012 14:00 22,7 C 21,2 C 2,4 UV-I 5,5 C 52 % 56 % 99 % 1021,5 hPa 0,0 l/m 5,4 km/h (1 Bft) 0,93 h 0,00 h 9,6 km/h (2 Bft)
26.06.2012 15:00 23,6 C 21,6 C 2,4 UV-I 5,0 C 50 % 55 % 99 % 1021,1 hPa 0,0 l/m 5,5 km/h (1 Bft) 0,92 h 0,00 h 10,8 km/h (2 Bft)
26.06.2012 16:00 24,3 C 21,9 C 2,2 UV-I 3,7 C 49 % 55 % 89 % 1020,4 hPa 0,0 l/m 5,0 km/h (1 Bft) 0,73 h 0,00 h 9,3 km/h (2 Bft)
26.06.2012 17:00 25,1 C 22,8 C 2,9 UV-I 4,9 C 46 % 51 % 100 % 1019,9 hPa 0,0 l/m 7,2 km/h (2 Bft) 1,00 h 0,00 h 11,8 km/h (2 Bft)
26.06.2012 18:00 25,0 C 22,2 C 1,4 UV-I 2,9 C 46 % 52 % 76 % 1020,3 hPa 0,0 l/m 6,4 km/h (2 Bft) 0,57 h 0,00 h 10,0 km/h (2 Bft)
26.06.2012 19:00 24,3 C 21,8 C 0,6 UV-I 0,3 C 47 % 54 % 9 % 1020,4 hPa 0,0 l/m 4,7 km/h (1 Bft) 0,00 h 0,00 h 9,2 km/h (2 Bft)
26.06.2012 20:00 23,8 C 21,1 C 0,1 UV-I 0,0 C 49 % 56 % 0 % 1020,5 hPa 0,0 l/m 4,5 km/h (1 Bft) 0,00 h 0,00 h 6,9 km/h (2 Bft)
26.06.2012 21:00 23,3 C 19,6 C 0,0 UV-I 0,0 C 50 % 62 % 0 % 1020,5 hPa 0,0 l/m 0,0 km/h (0 Bft) 0,00 h 0,00 h 0,0 km/h (0 Bft)
26.06.2012 22:00 22,9 C 17,5 C 0,0 UV-I 0,0 C 52 % 70 % 0 % 1020,6 hPa 0,0 l/m 0,0 km/h (0 Bft) 0,00 h 0,03 h 0,0 km/h (0 Bft)
26.06.2012 23:00 22,6 C 15,7 C 0,0 UV-I 0,0 C 53 % 78 % 0 % 1020,5 hPa 0,0 l/m 0,0 km/h (0 Bft) 0,00 h 0,07 h 0,0 km/h (0 Bft)
27.06.2012 00:00 22,3 C 15,1 C 0,0 UV-I 0,0 C 54 % 82 % 0 % 1020,3 hPa 0,0 l/m 0,0 km/h (0 Bft) 0,00 h 0,00 h 0,0 km/h (0 Bft)
27.06.2012 01:00 22,2 C 15,5 C 0,0 UV-I 0,0 C 55 % 82 % 0 % 1020,2 hPa 0,0 l/m 0,1 km/h (0 Bft) 0,00 h 0,00 h 0,4 km/h (0 Bft)
27.06.2012 02:00 22,2 C 16,2 C 0,0 UV-I 0,0 C 55 % 80 % 0 % 1019,9 hPa 0,0 l/m 0,6 km/h (0 Bft) 0,00 h 0,00 h 1,5 km/h (1 Bft)
27.06.2012 03:00 22,1 C 16,6 C 0,0 UV-I 0,0 C 55 % 81 % 0 % 1019,6 hPa 0,0 l/m 0,5 km/h (0 Bft) 0,00 h 0,00 h 2,5 km/h (1 Bft)
27.06.2012 04:00 22,1 C 16,8 C 0,0 UV-I 0,0 C 56 % 85 % 0 % 1019,2 hPa 0,0 l/m 1,4 km/h (1 Bft) 0,00 h 0,00 h 5,8 km/h (1 Bft)
27.06.2012 05:00 22,1 C 16,8 C 0,0 UV-I 0,0 C 57 % 88 % 0 % 1019,0 hPa 0,0 l/m 1,4 km/h (1 Bft) 0,00 h 0,03 h 3,8 km/h (1 Bft)
27.06.2012 06:00 22,0 C 16,5 C 0,0 UV-I 0,0 C 59 % 89 % 0 % 1018,6 hPa 0,0 l/m 2,4 km/h (1 Bft) 0,00 h 0,00 h 6,8 km/h (2 Bft)
27.06.2012 07:00 22,1 C 17,3 C 0,2 UV-I 0,7 C 59 % 90 % 21 % 1018,5 hPa 0,0 l/m 3,3 km/h (1 Bft) 0,00 h 0,00 h 8,0 km/h (2 Bft)
27.06.2012 08:00 22,2 C 17,6 C 0,0 UV-I 0,5 C 60 % 91 % 13 % 1018,4 hPa 0,0 l/m 3,1 km/h (1 Bft) 0,00 h 0,00 h 6,8 km/h (2 Bft)
27.06.2012 09:00 22,2 C 17,5 C 0,1 UV-I 0,3 C 61 % 93 % 7 % 1018,4 hPa 0,0 l/m 4,6 km/h (1 Bft) 0,00 h 0,07 h 10,5 km/h (2 Bft)
27.06.2012 10:00 22,4 C 18,5 C 0,6 UV-I 1,8 C 61 % 91 % 51 % 1018,5 hPa 0,0 l/m 4,1 km/h (1 Bft) 0,00 h 0,00 h 9,1 km/h (2 Bft)
27.06.2012 11:00 22,6 C 19,2 C 0,6 UV-I 1,7 C 61 % 89 % 49 % 1018,2 hPa 0,0 l/m 3,5 km/h (1 Bft) 0,00 h 0,00 h 7,8 km/h (2 Bft)
27.06.2012 12:00 22,7 C 19,7 C 0,7 UV-I 1,6 C 61 % 88 % 45 % 1018,1 hPa 0,0 l/m 2,9 km/h (1 Bft) 0,00 h 0,03 h 5,6 km/h (1 Bft)
27.06.2012 13:00 22,8 C 20,4 C 0,9 UV-I 1,9 C 61 % 87 % 55 % 1017,8 hPa 0,0 l/m 2,5 km/h (1 Bft) 0,03 h 0,00 h 5,7 km/h (1 Bft)
27.06.2012 14:00 23,0 C 20,7 C 0,7 UV-I 1,5 C 61 % 87 % 44 % 1017,6 hPa 0,0 l/m 3,6 km/h (1 Bft) 0,03 h 0,23 h 8,3 km/h (2 Bft)
27.06.2012 15:00 23,2 C 21,2 C 1,0 UV-I 1,9 C 62 % 88 % 55 % 1017,5 hPa 0,0 l/m 3,3 km/h (1 Bft) 0,33 h 0,30 h 8,1 km/h (2 Bft)
27.06.2012 16:00 23,3 C 20,6 C 0,4 UV-I 0,4 C 61 % 89 % 10 % 1017,4 hPa 0,4 l/m 1,9 km/h (1 Bft) 0,00 h 0,43 h 4,6 km/h (1 Bft)
27.06.2012 17:00 23,2 C 20,8 C 0,5 UV-I 1,2 C 62 % 90 % 34 % 1017,1 hPa 0,0 l/m 2,5 km/h (1 Bft) 0,00 h 0,00 h 6,9 km/h (2 Bft)
27.06.2012 18:00 23,5 C 22,0 C 1,1 UV-I 2,7 C 62 % 85 % 78 % 1016,6 hPa 0,0 l/m 3,8 km/h (1 Bft) 0,47 h 0,00 h 8,6 km/h (2 Bft)
27.06.2012 19:00 23,6 C 22,3 C 0,4 UV-I 1,0 C 61 % 82 % 29 % 1016,3 hPa 0,0 l/m 2,9 km/h (1 Bft) 0,00 h 0,00 h 7,2 km/h (2 Bft)
27.06.2012 20:00 23,5 C 21,8 C 0,0 UV-I 0,0 C 61 % 82 % 1 % 1015,9 hPa 0,0 l/m 0,3 km/h (0 Bft) 0,00 h 0,00 h 0,3 km/h (0 Bft)
27.06.2012 21:00 23,3 C 21,1 C 0,0 UV-I 0,0 C 61 % 85 % 0 % 1015,5 hPa 0,0 l/m 0,0 km/h (0 Bft) 0,00 h 0,03 h 0,0 km/h (0 Bft)
27.06.2012 22:00 23,1 C 20,0 C 0,0 UV-I 0,0 C 62 % 87 % 0 % 1015,4 hPa 0,0 l/m 0,0 km/h (0 Bft) 0,00 h 0,03 h 0,0 km/h (0 Bft)
27.06.2012 23:00 23,0 C 19,1 C 0,0 UV-I 0,0 C 63 % 90 % 0 % 1015,3 hPa 0,0 l/m 0,0 km/h (0 Bft) 0,00 h 0,03 h 0,0 km/h (0 Bft)
28.06.2012 00:00 22,9 C 18,7 C 0,0 UV-I 0,0 C 64 % 92 % 0 % 1014,8 hPa 0,0 l/m 0,0 km/h (0 Bft) 0,00 h 0,00 h 0,0 km/h (0 Bft)
28.06.2012 01:00 22,8 C 18,3 C 0,0 UV-I 0,0 C 64 % 93 % 0 % 1014,7 hPa 0,0 l/m 0,0 km/h (0 Bft) 0,00 h 0,03 h 0,0 km/h (0 Bft)
28.06.2012 02:00 22,8 C 17,9 C 0,0 UV-I 0,0 C 64 % 94 % 0 % 1014,3 hPa 0,0 l/m 0,0 km/h (0 Bft) 0,00 h 0,03 h 0,0 km/h (0 Bft)
28.06.2012 03:00 22,7 C 17,4 C 0,0 UV-I 0,0 C 64 % 94 % 0 % 1013,5 hPa 0,0 l/m 0,0 km/h (0 Bft) 0,00 h 0,00 h 0,0 km/h (0 Bft)
28.06.2012 04:00 22,6 C 17,2 C 0,0 UV-I 0,0 C 65 % 95 % 0 % 1013,0 hPa 0,0 l/m 0,1 km/h (0 Bft) 0,00 h 0,07 h 0,3 km/h (0 Bft)
28.06.2012 05:00 22,5 C 17,1 C 0,0 UV-I 0,0 C 65 % 96 % 0 % 1012,5 hPa 0,0 l/m 0,0 km/h (0 Bft) 0,00 h 0,00 h 0,0 km/h (0 Bft)
28.06.2012 06:00 22,5 C 17,2 C 0,0 UV-I 0,0 C 65 % 96 % 0 % 1012,4 hPa 0,0 l/m 0,1 km/h (0 Bft) 0,00 h 0,00 h 0,2 km/h (0 Bft)
28.06.2012 07:00 22,6 C 17,9 C 0,1 UV-I 0,5 C 65 % 97 % 14 % 1011,6 hPa 0,0 l/m 0,3 km/h (0 Bft) 0,00 h 0,00 h 1,5 km/h (1 Bft)
28.06.2012 08:00 22,8 C 19,4 C 0,7 UV-I 3,9 C 65 % 97 % 85 % 1011,6 hPa 0,0 l/m 2,6 km/h (1 Bft) 0,73 h 0,00 h 4,9 km/h (1 Bft)
28.06.2012 09:00 23,1 C 21,3 C 1,7 UV-I 3,7 C 65 % 94 % 97 % 1011,3 hPa 0,0 l/m 3,9 km/h (1 Bft) 0,87 h 0,00 h 10,8 km/h (2 Bft)
28.06.2012 10:00 23,2 C 24,0 C 4,9 UV-I 6,8 C 65 % 83 % 100 % 1010,5 hPa 0,0 l/m 6,0 km/h (2 Bft) 0,40 h 0,00 h 10,0 km/h (2 Bft)
28.06.2012 11:00 23,3 C 26,1 C 3,3 UV-I 5,5 C 65 % 72 % 100 % 1009,7 hPa 0,0 l/m 8,5 km/h (2 Bft) 0,67 h 0,00 h 14,9 km/h (3 Bft)
28.06.2012 12:00 23,6 C 27,3 C 2,4 UV-I 5,0 C 65 % 68 % 100 % 1008,9 hPa 0,0 l/m 8,1 km/h (2 Bft) 1,00 h 0,00 h 14,2 km/h (3 Bft)
28.06.2012 13:00 24,1 C 28,4 C 2,3 UV-I 4,3 C 64 % 63 % 98 % 1008,0 hPa 0,0 l/m 9,5 km/h (2 Bft) 1,00 h 0,00 h 17,2 km/h (3 Bft)
28.06.2012 14:00 24,7 C 28,5 C 2,2 UV-I 3,3 C 63 % 63 % 84 % 1007,5 hPa 0,0 l/m 7,7 km/h (2 Bft) 0,47 h 0,00 h 16,1 km/h (3 Bft)
28.06.2012 15:00 25,2 C 28,9 C 2,2 UV-I 3,1 C 62 % 63 % 88 % 1006,9 hPa 0,0 l/m 8,1 km/h (2 Bft) 0,77 h 0,00 h 14,2 km/h (3 Bft)
28.06.2012 16:00 25,3 C 28,8 C 1,1 UV-I 1,6 C 61 % 63 % 45 % 1006,1 hPa 0,0 l/m 7,0 km/h (2 Bft) 0,00 h 0,00 h 12,7 km/h (3 Bft)
28.06.2012 17:00 25,3 C 28,5 C 1,2 UV-I 1,3 C 62 % 64 % 38 % 1004,9 hPa 0,0 l/m 6,2 km/h (2 Bft) 0,07 h 0,17 h 13,3 km/h (3 Bft)
28.06.2012 18:00 25,4 C 28,8 C 0,6 UV-I 1,1 C 63 % 64 % 32 % 1005,1 hPa 0,0 l/m 5,3 km/h (1 Bft) 0,00 h 0,00 h 10,1 km/h (2 Bft)
28.06.2012 19:00 25,3 C 28,9 C 0,3 UV-I 0,4 C 63 % 63 % 13 % 1005,0 hPa 0,0 l/m 4,0 km/h (1 Bft) 0,00 h 0,00 h 8,6 km/h (2 Bft)
28.06.2012 20:00 25,2 C 28,2 C 0,0 UV-I 0,0 C 63 % 65 % 0 % 1004,8 hPa 0,0 l/m 3,2 km/h (1 Bft) 0,00 h 0,00 h 6,6 km/h (2 Bft)
28.06.2012 21:00 25,2 C 26,9 C 0,0 UV-I 0,0 C 65 % 70 % 0 % 1004,9 hPa 0,0 l/m 1,9 km/h (1 Bft) 0,00 h 0,00 h 3,7 km/h (1 Bft)
28.06.2012 22:00 25,0 C 25,8 C 0,0 UV-I 0,0 C 66 % 74 % 0 % 1005,5 hPa 0,0 l/m 4,6 km/h (1 Bft) 0,00 h 0,03 h 8,4 km/h (2 Bft)
28.06.2012 23:00 24,9 C 24,0 C 0,0 UV-I 0,0 C 67 % 78 % 0 % 1006,0 hPa 0,2 l/m 4,8 km/h (1 Bft) 0,00 h 0,23 h 9,3 km/h (2 Bft)
29.06.2012 00:00 24,7 C 22,2 C 0,0 UV-I 0,0 C 68 % 83 % 0 % 1005,9 hPa 0,0 l/m 6,5 km/h (2 Bft) 0,00 h 0,00 h 10,0 km/h (2 Bft)
29.06.2012 01:00 24,5 C 21,4 C 0,0 UV-I 0,0 C 67 % 84 % 0 % 1006,4 hPa 0,0 l/m 4,5 km/h (1 Bft) 0,00 h 0,00 h 8,1 km/h (2 Bft)
29.06.2012 02:00 24,3 C 20,9 C 0,0 UV-I 0,0 C 68 % 85 % 0 % 1006,3 hPa 0,0 l/m 2,6 km/h (1 Bft) 0,00 h 0,03 h 5,6 km/h (1 Bft)
29.06.2012 03:00 24,2 C 20,7 C 0,0 UV-I 0,0 C 67 % 87 % 0 % 1006,3 hPa 0,0 l/m 1,1 km/h (0 Bft) 0,00 h 0,07 h 2,8 km/h (1 Bft)
29.06.2012 04:00 24,1 C 20,5 C 0,0 UV-I 0,0 C 68 % 88 % 0 % 1006,3 hPa 0,0 l/m 3,7 km/h (1 Bft) 0,00 h 0,00 h 7,1 km/h (2 Bft)
29.06.2012 05:00 24,1 C 20,4 C 0,0 UV-I 0,0 C 69 % 90 % 0 % 1006,6 hPa 0,0 l/m 2,9 km/h (1 Bft) 0,00 h 0,00 h 5,3 km/h (1 Bft)
29.06.2012 06:00 24,0 C 20,3 C 0,0 UV-I 0,0 C 69 % 90 % 0 % 1006,8 hPa 0,0 l/m 1,4 km/h (1 Bft) 0,00 h 0,03 h 4,4 km/h (1 Bft)
29.06.2012 07:00 24,0 C 20,6 C 0,0 UV-I 0,3 C 69 % 90 % 10 % 1007,0 hPa 0,0 l/m 0,6 km/h (0 Bft) 0,00 h 0,00 h 1,4 km/h (1 Bft)
29.06.2012 08:00 24,2 C 21,5 C 0,4 UV-I 2,3 C 69 % 89 % 65 % 1007,2 hPa 0,0 l/m 0,7 km/h (0 Bft) 0,50 h 0,00 h 1,6 km/h (1 Bft)
29.06.2012 09:00 24,4 C 22,1 C 0,7 UV-I 2,9 C 68 % 82 % 81 % 1007,5 hPa 0,0 l/m 3,5 km/h (1 Bft) 0,53 h 0,00 h 8,4 km/h (2 Bft)
29.06.2012 10:00 24,5 C 21,9 C 1,4 UV-I 3,5 C 66 % 77 % 81 % 1007,5 hPa 0,0 l/m 3,8 km/h (1 Bft) 0,70 h 0,00 h 8,5 km/h (2 Bft)
29.06.2012 11:00 24,6 C 22,3 C 0,8 UV-I 2,9 C 64 % 76 % 69 % 1007,1 hPa 0,0 l/m 1,7 km/h (1 Bft) 0,40 h 0,07 h 4,0 km/h (1 Bft)
29.06.2012 12:00 24,7 C 22,1 C 0,7 UV-I 1,8 C 65 % 79 % 51 % 1007,9 hPa 0,0 l/m 2,2 km/h (1 Bft) 0,17 h 0,13 h 5,7 km/h (1 Bft)
29.06.2012 13:00 24,8 C 22,5 C 0,9 UV-I 2,4 C 64 % 78 % 56 % 1007,7 hPa 0,1 l/m 3,3 km/h (1 Bft) 0,47 h 0,43 h 5,4 km/h (1 Bft)
29.06.2012 14:00 24,7 C 21,2 C 0,3 UV-I 0,0 C 65 % 84 % 0 % 1008,0 hPa 1,1 l/m 0,1 km/h (0 Bft) 0,00 h 0,73 h 0,0 km/h (0 Bft)
29.06.2012 15:00 24,6 C 20,4 C 0,3 UV-I 0,0 C 67 % 88 % 0 % 1008,8 hPa 0,7 l/m 0,6 km/h (0 Bft) 0,00 h 0,43 h 2,0 km/h (1 Bft)
29.06.2012 16:00 24,3 C 19,6 C 0,0 UV-I 0,0 C 68 % 90 % 0 % 1008,7 hPa 2,0 l/m 2,3 km/h (1 Bft) 0,00 h 0,80 h 6,0 km/h (2 Bft)
29.06.2012 17:00 24,0 C 18,5 C 0,3 UV-I 0,0 C 68 % 92 % 1 % 1008,5 hPa 1,5 l/m 2,7 km/h (1 Bft) 0,00 h 0,33 h 5,7 km/h (1 Bft)
29.06.2012 18:00 24,0 C 19,2 C 0,6 UV-I 1,0 C 68 % 93 % 29 % 1008,7 hPa 0,0 l/m 2,7 km/h (1 Bft) 0,00 h 0,00 h 6,8 km/h (2 Bft)
29.06.2012 19:00 24,2 C 20,1 C 0,5 UV-I 1,1 C 67 % 91 % 32 % 1008,7 hPa 0,0 l/m 2,1 km/h (1 Bft) 0,00 h 0,00 h 5,6 km/h (1 Bft)
29.06.2012 20:00 24,2 C 20,1 C 0,1 UV-I 0,2 C 66 % 86 % 6 % 1009,2 hPa 0,0 l/m 1,6 km/h (1 Bft) 0,00 h 0,00 h 3,5 km/h (1 Bft)
29.06.2012 21:00 23,9 C 18,8 C 0,0 UV-I 0,0 C 63 % 84 % 0 % 1009,8 hPa 0,0 l/m 0,2 km/h (0 Bft) 0,00 h 0,00 h 0,3 km/h (0 Bft)
29.06.2012 22:00 23,6 C 18,0 C 0,0 UV-I 0,0 C 63 % 86 % 0 % 1010,3 hPa 0,0 l/m 0,2 km/h (0 Bft) 0,00 h 0,00 h 0,0 km/h (0 Bft)
29.06.2012 23:00 23,3 C 17,6 C 0,0 UV-I 0,0 C 62 % 87 % 0 % 1010,7 hPa 0,0 l/m 0,4 km/h (0 Bft) 0,00 h 0,00 h 1,4 km/h (1 Bft)
30.06.2012 00:00 23,1 C 17,2 C 0,0 UV-I 0,0 C 62 % 86 % 0 % 1010,7 hPa 0,0 l/m 0,2 km/h (0 Bft) 0,00 h 0,00 h 0,8 km/h (0 Bft)
30.06.2012 01:00 22,9 C 16,1 C 0,0 UV-I 0,0 C 62 % 88 % 0 % 1010,8 hPa 0,0 l/m 0,1 km/h (0 Bft) 0,00 h 0,00 h 0,3 km/h (0 Bft)
30.06.2012 02:00 22,7 C 15,5 C 0,0 UV-I 0,0 C 62 % 90 % 0 % 1011,1 hPa 0,0 l/m 1,3 km/h (1 Bft) 0,00 h 0,00 h 4,4 km/h (1 Bft)
30.06.2012 03:00 22,5 C 15,4 C 0,0 UV-I 0,0 C 62 % 91 % 0 % 1011,0 hPa 0,0 l/m 1,6 km/h (1 Bft) 0,00 h 0,00 h 4,6 km/h (1 Bft)
30.06.2012 04:00 22,3 C 15,4 C 0,0 UV-I 0,0 C 61 % 90 % 0 % 1011,1 hPa 0,0 l/m 0,7 km/h (0 Bft) 0,00 h 0,00 h 2,7 km/h (1 Bft)
30.06.2012 05:00 22,3 C 15,5 C 0,0 UV-I 0,0 C 61 % 90 % 0 % 1011,2 hPa 0,0 l/m 1,3 km/h (1 Bft) 0,00 h 0,00 h 4,4 km/h (1 Bft)
30.06.2012 06:00 22,2 C 16,1 C 0,0 UV-I 0,0 C 61 % 89 % 1 % 1011,4 hPa 0,0 l/m 2,0 km/h (1 Bft) 0,00 h 0,00 h 5,5 km/h (1 Bft)
30.06.2012 07:00 22,2 C 17,4 C 0,3 UV-I 0,4 C 62 % 87 % 10 % 1011,7 hPa 0,0 l/m 2,7 km/h (1 Bft) 0,00 h 0,00 h 6,5 km/h (2 Bft)
30.06.2012 08:00 22,2 C 18,7 C 1,0 UV-I 4,8 C 62 % 84 % 80 % 1011,8 hPa 0,0 l/m 3,7 km/h (1 Bft) 0,73 h 0,00 h 6,7 km/h (2 Bft)
30.06.2012 09:00 22,4 C 20,8 C 3,4 UV-I 8,3 C 62 % 77 % 100 % 1011,8 hPa 0,0 l/m 3,1 km/h (1 Bft) 1,00 h 0,00 h 7,3 km/h (2 Bft)
30.06.2012 10:00 22,6 C 22,2 C 4,1 UV-I 7,2 C 62 % 70 % 100 % 1012,0 hPa 0,0 l/m 4,6 km/h (1 Bft) 1,00 h 0,00 h 10,1 km/h (2 Bft)
30.06.2012 11:00 22,9 C 23,1 C 3,4 UV-I 6,6 C 60 % 66 % 100 % 1012,1 hPa 0,0 l/m 6,5 km/h (2 Bft) 1,00 h 0,00 h 12,9 km/h (3 Bft)
30.06.2012 12:00 23,4 C 23,6 C 2,3 UV-I 4,9 C 58 % 62 % 100 % 1012,2 hPa 0,0 l/m 6,6 km/h (2 Bft) 1,00 h 0,00 h 12,8 km/h (3 Bft)
30.06.2012 13:00 24,0 C 24,6 C 2,8 UV-I 5,6 C 57 % 61 % 100 % 1011,8 hPa 0,0 l/m 5,6 km/h (1 Bft) 1,00 h 0,00 h 10,2 km/h (2 Bft)
30.06.2012 14:00 24,8 C 25,7 C 2,8 UV-I 5,4 C 55 % 56 % 100 % 1011,6 hPa 0,0 l/m 6,9 km/h (2 Bft) 1,00 h 0,00 h 10,0 km/h (2 Bft)
30.06.2012 15:00 26,1 C 26,5 C 2,8 UV-I 5,3 C 52 % 54 % 100 % 1010,9 hPa 0,0 l/m 5,9 km/h (2 Bft) 1,00 h 0,00 h 9,9 km/h (2 Bft)
30.06.2012 16:00 27,2 C 27,1 C 3,1 UV-I 5,6 C 48 % 52 % 100 % 1010,0 hPa 0,0 l/m 4,4 km/h (1 Bft) 1,00 h 0,00 h 8,3 km/h (2 Bft)
30.06.2012 17:00 27,4 C 26,9 C 2,2 UV-I 4,4 C 48 % 53 % 100 % 1010,0 hPa 0,0 l/m 3,2 km/h (1 Bft) 1,00 h 0,00 h 8,0 km/h (2 Bft)
30.06.2012 18:00 26,9 C 26,3 C 1,2 UV-I 2,9 C 50 % 54 % 81 % 1010,1 hPa 0,0 l/m 2,7 km/h (1 Bft) 0,57 h 0,00 h 6,9 km/h (2 Bft)
30.06.2012 19:00 26,3 C 25,2 C 0,5 UV-I 0,5 C 52 % 63 % 14 % 1009,9 hPa 0,0 l/m 4,2 km/h (1 Bft) 0,00 h 0,00 h 8,3 km/h (2 Bft)
30.06.2012 20:00 25,9 C 24,2 C 0,1 UV-I 0,0 C 54 % 67 % 0 % 1010,1 hPa 0,0 l/m 1,3 km/h (1 Bft) 0,00 h 0,00 h 2,7 km/h (1 Bft)
30.06.2012 21:00 25,5 C 22,9 C 0,0 UV-I 0,0 C 55 % 67 % 0 % 1010,2 hPa 0,0 l/m 0,0 km/h (0 Bft) 0,00 h 0,00 h 0,0 km/h (0 Bft)
30.06.2012 22:00 25,1 C 21,3 C 0,0 UV-I 0,0 C 56 % 70 % 0 % 1010,8 hPa 0,0 l/m 0,3 km/h (0 Bft) 0,00 h 0,00 h 0,6 km/h (0 Bft)
30.06.2012 23:00 24,8 C 20,2 C 0,0 UV-I 0,0 C 56 % 69 % 0 % 1011,0 hPa 0,0 l/m 2,9 km/h (1 Bft) 0,00 h 0,00 h 5,4 km/h (1 Bft)
01.07.2012 00:00 24,6 C 18,9 C 0,0 UV-I 0,0 C 57 % 77 % 0 % 1012,1 hPa 0,0 l/m 1,4 km/h (1 Bft) 0,00 h 0,00 h 2,4 km/h (1 Bft)
01.07.2012 01:00 24,4 C 17,8 C 0,0 UV-I 0,0 C 58 % 82 % 0 % 1012,6 hPa 0,0 l/m 0,2 km/h (0 Bft) 0,00 h 0,00 h 1,5 km/h (1 Bft)
01.07.2012 02:00 24,2 C 17,3 C 0,0 UV-I 0,0 C 58 % 85 % 0 % 1012,8 hPa 0,0 l/m 1,0 km/h (0 Bft) 0,00 h 0,00 h 2,6 km/h (1 Bft)
01.07.2012 03:00 24,0 C 16,4 C 0,0 UV-I 0,0 C 58 % 87 % 0 % 1013,0 hPa 0,0 l/m 0,4 km/h (0 Bft) 0,00 h 0,00 h 1,1 km/h (1 Bft)
01.07.2012 04:00 23,8 C 16,1 C 0,0 UV-I 0,0 C 59 % 89 % 0 % 1013,5 hPa 0,0 l/m 0,5 km/h (0 Bft) 0,00 h 0,00 h 1,7 km/h (1 Bft)
01.07.2012 05:00 23,6 C 15,3 C 0,0 UV-I 0,0 C 59 % 90 % 0 % 1013,8 hPa 0,0 l/m 0,5 km/h (0 Bft) 0,00 h 0,00 h 1,6 km/h (1 Bft)
01.07.2012 06:00 23,3 C 14,6 C 0,0 UV-I 0,0 C 59 % 92 % 0 % 1013,9 hPa 0,0 l/m 0,2 km/h (0 Bft) 0,00 h 0,00 h 0,7 km/h (0 Bft)
01.07.2012 07:00 23,2 C 15,2 C 0,3 UV-I 0,3 C 59 % 92 % 8 % 1014,3 hPa 0,0 l/m 1,8 km/h (1 Bft) 0,00 h 0,00 h 4,7 km/h (1 Bft)
01.07.2012 08:00 23,3 C 16,8 C 1,0 UV-I 4,0 C 59 % 86 % 77 % 1014,3 hPa 0,0 l/m 2,7 km/h (1 Bft) 0,43 h 0,00 h 6,2 km/h (2 Bft)
01.07.2012 09:00 23,7 C 17,8 C 1,0 UV-I 3,6 C 56 % 74 % 83 % 1015,1 hPa 0,0 l/m 5,4 km/h (1 Bft) 0,50 h 0,00 h 10,6 km/h (2 Bft)
01.07.2012 10:00 23,8 C 18,0 C 1,5 UV-I 3,3 C 54 % 70 % 81 % 1015,4 hPa 0,0 l/m 3,9 km/h (1 Bft) 0,53 h 0,00 h 9,7 km/h (2 Bft)
01.07.2012 11:00 24,0 C 19,0 C 1,9 UV-I 4,9 C 53 % 66 % 98 % 1015,6 hPa 0,0 l/m 4,3 km/h (1 Bft) 1,00 h 0,00 h 8,5 km/h (2 Bft)
01.07.2012 12:00 24,2 C 19,8 C 2,4 UV-I 5,1 C 52 % 64 % 98 % 1015,6 hPa 0,0 l/m 5,6 km/h (1 Bft) 1,00 h 0,00 h 10,1 km/h (2 Bft)
01.07.2012 13:00 24,3 C 20,1 C 1,4 UV-I 3,4 C 51 % 63 % 85 % 1015,7 hPa 0,0 l/m 4,4 km/h (1 Bft) 0,63 h 0,00 h 9,0 km/h (2 Bft)
01.07.2012 14:00 24,3 C 20,4 C 1,5 UV-I 3,0 C 49 % 62 % 86 % 1015,9 hPa 0,0 l/m 5,0 km/h (1 Bft) 0,67 h 0,00 h 9,8 km/h (2 Bft)
01.07.2012 15:00 24,8 C 21,5 C 2,2 UV-I 4,4 C 47 % 57 % 98 % 1015,2 hPa 0,0 l/m 6,4 km/h (2 Bft) 1,00 h 0,00 h 12,4 km/h (3 Bft)
01.07.2012 16:00 26,1 C 22,0 C 2,0 UV-I 3,8 C 43 % 52 % 84 % 1015,4 hPa 0,0 l/m 8,6 km/h (2 Bft) 0,63 h 0,00 h 14,9 km/h (3 Bft)
01.07.2012 17:00 26,2 C 21,2 C 2,1 UV-I 3,0 C 41 % 53 % 72 % 1016,2 hPa 0,0 l/m 8,9 km/h (2 Bft) 0,57 h 0,03 h 14,8 km/h (3 Bft)
01.07.2012 18:00 25,3 C 19,4 C 0,8 UV-I 0,8 C 41 % 57 % 22 % 1017,3 hPa 0,0 l/m 8,1 km/h (2 Bft) 0,00 h 0,00 h 15,2 km/h (3 Bft)
01.07.2012 19:00 24,5 C 19,2 C 0,5 UV-I 0,2 C 43 % 59 % 6 % 1017,7 hPa 0,0 l/m 6,0 km/h (2 Bft) 0,00 h 0,00 h 14,2 km/h (3 Bft)
01.07.2012 20:00 24,0 C 18,9 C 0,2 UV-I 0,0 C 43 % 55 % 0 % 1018,0 hPa 0,0 l/m 6,8 km/h (2 Bft) 0,00 h 0,00 h 11,2 km/h (2 Bft)
01.07.2012 21:00 23,7 C 17,7 C 0,0 UV-I 0,0 C 42 % 58 % 0 % 1018,6 hPa 0,0 l/m 1,7 km/h (1 Bft) 0,00 h 0,00 h 4,2 km/h (1 Bft)
01.07.2012 22:00 23,2 C 16,2 C 0,0 UV-I 0,0 C 43 % 61 % 0 % 1019,6 hPa 0,0 l/m 0,2 km/h (0 Bft) 0,00 h 0,00 h 1,0 km/h (0 Bft)
01.07.2012 23:00 22,9 C 14,9 C 0,0 UV-I 0,0 C 44 % 66 % 0 % 1020,2 hPa 0,0 l/m 0,0 km/h (0 Bft) 0,00 h 0,00 h 0,3 km/h (0 Bft)
Min-Datum _ 25.06.12 26.06.12 25.06.12 25.06.12 01.07.12 26.06.12 25.06.12 28.06.12 - 25.06.12 - - 25.06.12
_ Min-Zeit 02:58 03:38 00:00 00:00 17:44 17:44 00:00 17:34 - 00:00 - - 00:00
Minimum _ 19,2 C 9,7 C 0,0 UV-I 0,0 C 40 % 49 % 0 % 1003,8 hPa - 0,0 km/h (0 Bft) - - 0,0 km/h (0 Bft)
Max-Datum _ 30.06.12 28.06.12 28.06.12 26.06.12 29.06.12 28.06.12 25.06.12 26.06.12 29.06.12 25.06.12 25.06.12 25.06.12 25.06.12
_ Max-Zeit 16:46 15:48 10:24 08:52 04:38 07:22 10:28 12:34 16:32 15:38 10:26 08:32 15:42
Maximum _ 27,6 C 29,2 C 5,1 UV-I 9,2 C 69 % 97 % 100 % 1021,8 hPa 2,0 l/m 12,4 km/h
NW (3 Bft)
0,03 h 0,03 h 42,2 km/h
NW (6 Bft)
Durchschnitt _ 23,1 C 19,2 C 0,8 UV-I 1,6 C 59 % 78 % 34 % 1013,9 hPa #6,1 l/m 3,2 km/h (1 Bft) #40:49 h #6:04 h 6,4 km/h (2 Bft)
© 2012 W. Hausmann